Airfield :







YOU CAN JOIN US ON...

 
LOGIN :

Register | Disclaimer

   EN    FR    IT 

 









Legend :    VFR   Marginal VFR   IFR   Intensive IFR   Very Intensive IFR
Visi :
Ceiling :
>= 8 km
>= 3000ft
5 to 8 km
1000 to 3000 ft
1500m to 5 km
500 to 1000 ft
800 to 1500m
200 to 500 ft
< 800m
< 200 ft
Symbols :   Thunderstorms  Fog  Heavy snow  Heavy precipitations  Wind > 20 kt






- Airport Elevation : 496 ft
- IATA code : YQX


CYQX - Gander

CURRENT METAR :
  • 170400Z 27026G39KT 15SM FEW035 FEW045 FEW065 FEW150 M04/M10 A2961 RMK SC1SC1SC1AC1 SC TR AC TR SLP038

EXPIRED METARs :
  • 170300Z 27025G36KT 15SM FEW035 SCT045 BKN065 M04/M10 A2958 RMK SC2SC1SC2 SLP026
  • 170243Z 28023G33KT 15SM FEW025 SCT035 SCT045 BKN069 M03/M09 A2957 RMK SC1SC2SC1AC1 SLP021
  • 170200Z 28029G40KT 15SM -SHSN FEW025 BKN035 BKN045 M03/M10 A2955 RMK SC1SC4SC2 SLP017

TAF AMD TAF CYQX
Valid from the 17 at 01:00 until the 18 at 00:00 UTC


170108Z 1701/1724 27025G36KT P6SM BKN030
TEMPO 1701/1706 21/2SM -SHSN BKN020
FM170600 26020G35KT P6SM FEW030
FM171500 26020G30KT P6SM BKN030
FM172000 29017KT P6SM FEW030 RMK NXT FCST BY 170600Z



MET'MAP, your aeronautical weather chart ! - Copyright ORBIFLY December 2007 - Disclaimer

ORBIFLY MET'MAP TEAM :

Programming & Development : Alexandra Zaïnal
Concept & Development : Baudouin d'Aumeries
Co-Development & Prog : Marc-Olivier Méhu
Technical & hardware support : Manuel Goepfert

Contact : metmap@orbifly.com




SOURCES & CREDITS :

   NOAA